sensor_id;sensor_type;location;lat;lon;timestamp;pressure;altitude;pressure_sealevel;temperature;humidity
54042;BME280;41156;51.508;5.406;2023-04-08T00:01:40;102123.47;;;8.44;100.00
54042;BME280;41156;51.508;5.406;2023-04-08T00:04:41;102124.34;;;8.44;100.00
54042;BME280;41156;51.508;5.406;2023-04-08T00:07:41;102125.00;;;8.46;100.00
54042;BME280;41156;51.508;5.406;2023-04-08T00:10:42;102132.22;;;8.46;100.00
54042;BME280;41156;51.508;5.406;2023-04-08T00:13:42;102122.97;;;8.48;100.00
54042;BME280;41156;51.508;5.406;2023-04-08T00:16:42;102125.50;;;8.50;100.00
54042;BME280;41156;51.508;5.406;2023-04-08T00:19:43;102127.53;;;8.56;100.00
54042;BME280;41156;51.508;5.406;2023-04-08T00:22:43;102130.03;;;8.58;100.00
54042;BME280;41156;51.508;5.406;2023-04-08T00:25:44;102130.72;;;8.60;100.00
54042;BME280;41156;51.508;5.406;2023-04-08T00:28:44;102130.53;;;8.61;100.00
54042;BME280;41156;51.508;5.406;2023-04-08T00:31:45;102132.22;;;8.62;100.00
54042;BME280;41156;51.508;5.406;2023-04-08T00:34:45;102130.38;;;8.63;100.00
54042;BME280;41156;51.508;5.406;2023-04-08T00:37:45;102131.53;;;8.60;100.00
54042;BME280;41156;51.508;5.406;2023-04-08T00:40:47;102129.00;;;8.59;100.00
54042;BME280;41156;51.508;5.406;2023-04-08T00:43:47;102131.88;;;8.57;100.00
54042;BME280;41156;51.508;5.406;2023-04-08T00:46:47;102126.66;;;8.56;100.00
54042;BME280;41156;51.508;5.406;2023-04-08T00:49:48;102132.53;;;8.59;100.00
54042;BME280;41156;51.508;5.406;2023-04-08T00:52:48;102138.47;;;8.63;100.00
54042;BME280;41156;51.508;5.406;2023-04-08T00:55:48;102135.59;;;8.64;100.00
54042;BME280;41156;51.508;5.406;2023-04-08T00:58:50;102139.78;;;8.67;100.00
54042;BME280;41156;51.508;5.406;2023-04-08T01:02:18;102133.41;;;8.68;100.00
54042;BME280;41156;51.508;5.406;2023-04-08T01:05:29;102134.41;;;8.67;100.00
54042;BME280;41156;51.508;5.406;2023-04-08T01:08:37;102145.00;;;8.68;100.00
54042;BME280;41156;51.508;5.406;2023-04-08T01:11:42;102138.63;;;8.69;100.00
54042;BME280;41156;51.508;5.406;2023-04-08T01:14:43;102149.22;;;8.71;100.00
54042;BME280;41156;51.508;5.406;2023-04-08T01:17:47;102139.44;;;8.70;100.00
54042;BME280;41156;51.508;5.406;2023-04-08T01:20:50;102143.84;;;8.71;100.00
54042;BME280;41156;51.508;5.406;2023-04-08T01:24:00;102141.16;;;8.71;100.00
54042;BME280;41156;51.508;5.406;2023-04-08T01:27:06;102143.66;;;8.73;100.00
54042;BME280;41156;51.508;5.406;2023-04-08T01:30:08;102148.03;;;8.74;100.00
54042;BME280;41156;51.508;5.406;2023-04-08T01:33:11;102148.88;;;8.74;100.00
54042;BME280;41156;51.508;5.406;2023-04-08T01:36:13;102148.19;;;8.72;100.00
54042;BME280;41156;51.508;5.406;2023-04-08T01:39:15;102149.91;;;8.73;100.00
54042;BME280;41156;51.508;5.406;2023-04-08T01:42:16;102152.09;;;8.69;100.00
54042;BME280;41156;51.508;5.406;2023-04-08T01:45:17;102147.03;;;8.66;100.00
54042;BME280;41156;51.508;5.406;2023-04-08T01:48:18;102151.75;;;8.64;100.00
54042;BME280;41156;51.508;5.406;2023-04-08T01:51:20;102152.59;;;8.65;100.00
54042;BME280;41156;51.508;5.406;2023-04-08T01:54:21;102152.59;;;8.65;100.00
54042;BME280;41156;51.508;5.406;2023-04-08T01:57:23;102147.53;;;8.62;100.00
54042;BME280;41156;51.508;5.406;2023-04-08T02:00:29;102145.34;;;8.57;100.00
54042;BME280;41156;51.508;5.406;2023-04-08T02:03:30;102146.88;;;8.60;100.00
54042;BME280;41156;51.508;5.406;2023-04-08T02:06:32;102147.22;;;8.65;100.00
54042;BME280;41156;51.508;5.406;2023-04-08T02:09:32;102151.41;;;8.67;100.00
54042;BME280;41156;51.508;5.406;2023-04-08T02:12:33;102145.19;;;8.67;100.00
54042;BME280;41156;51.508;5.406;2023-04-08T02:15:37;102152.09;;;8.69;100.00
54042;BME280;41156;51.508;5.406;2023-04-08T02:18:42;102158.81;;;8.65;100.00
54042;BME280;41156;51.508;5.406;2023-04-08T02:21:47;102152.59;;;8.57;100.00
54042;BME280;41156;51.508;5.406;2023-04-08T02:24:49;102154.47;;;8.56;100.00
54042;BME280;41156;51.508;5.406;2023-04-08T02:27:53;102152.09;;;8.53;100.00
54042;BME280;41156;51.508;5.406;2023-04-08T02:30:56;102161.34;;;8.50;100.00
54042;BME280;41156;51.508;5.406;2023-04-08T02:33:57;102147.38;;;8.55;100.00
54042;BME280;41156;51.508;5.406;2023-04-08T02:36:58;102160.53;;;8.58;100.00
54042;BME280;41156;51.508;5.406;2023-04-08T02:39:58;102165.56;;;8.61;100.00
54042;BME280;41156;51.508;5.406;2023-04-08T02:42:58;102161.69;;;8.64;100.00
54042;BME280;41156;51.508;5.406;2023-04-08T02:45:59;102164.72;;;8.52;100.00
54042;BME280;41156;51.508;5.406;2023-04-08T02:49:02;102163.38;;;8.48;100.00
54042;BME280;41156;51.508;5.406;2023-04-08T02:52:03;102163.22;;;8.50;100.00
54042;BME280;41156;51.508;5.406;2023-04-08T02:55:04;102165.91;;;8.50;100.00
54042;BME280;41156;51.508;5.406;2023-04-08T02:58:09;102174.16;;;8.48;100.00
54042;BME280;41156;51.508;5.406;2023-04-08T03:01:09;102166.41;;;8.45;100.00
54042;BME280;41156;51.508;5.406;2023-04-08T03:04:09;102165.03;;;8.41;100.00
54042;BME280;41156;51.508;5.406;2023-04-08T03:07:10;102172.63;;;8.38;100.00
54042;BME280;41156;51.508;5.406;2023-04-08T03:10:10;102172.63;;;8.38;100.00
54042;BME280;41156;51.508;5.406;2023-04-08T03:13:11;102169.72;;;8.39;100.00
54042;BME280;41156;51.508;5.406;2023-04-08T03:16:11;102169.94;;;8.38;100.00
54042;BME280;41156;51.508;5.406;2023-04-08T03:19:11;102169.06;;;8.37;100.00
54042;BME280;41156;51.508;5.406;2023-04-08T03:22:12;102174.28;;;8.39;100.00
54042;BME280;41156;51.508;5.406;2023-04-08T03:25:13;102170.59;;;8.40;100.00
54042;BME280;41156;51.508;5.406;2023-04-08T03:28:13;102170.44;;;8.41;100.00
54042;BME280;41156;51.508;5.406;2023-04-08T03:31:13;102172.81;;;8.44;100.00
54042;BME280;41156;51.508;5.406;2023-04-08T03:34:13;102171.78;;;8.45;100.00
54042;BME280;41156;51.508;5.406;2023-04-08T03:37:14;102178.38;;;8.43;100.00
54042;BME280;41156;51.508;5.406;2023-04-08T03:40:14;102177.66;;;8.41;100.00
54042;BME280;41156;51.508;5.406;2023-04-08T03:43:14;102171.44;;;8.40;100.00
54042;BME280;41156;51.508;5.406;2023-04-08T03:46:15;102163.88;;;8.44;100.00
54042;BME280;41156;51.508;5.406;2023-04-08T03:49:15;102165.41;;;8.46;100.00
54042;BME280;41156;51.508;5.406;2023-04-08T03:52:15;102172.47;;;8.47;100.00
54042;BME280;41156;51.508;5.406;2023-04-08T03:55:16;102170.13;;;8.44;100.00
54042;BME280;41156;51.508;5.406;2023-04-08T03:58:16;102182.56;;;8.45;100.00
54042;BME280;41156;51.508;5.406;2023-04-08T04:01:16;102174.31;;;8.47;100.00
54042;BME280;41156;51.508;5.406;2023-04-08T04:04:16;102174.16;;;8.48;100.00
54042;BME280;41156;51.508;5.406;2023-04-08T04:07:17;102176.19;;;8.46;100.00
54042;BME280;41156;51.508;5.406;2023-04-08T04:10:17;102171.47;;;8.48;100.00
54042;BME280;41156;51.508;5.406;2023-04-08T04:13:17;102178.53;;;8.49;100.00
54042;BME280;41156;51.508;5.406;2023-04-08T04:16:18;102182.91;;;8.50;100.00
54042;BME280;41156;51.508;5.406;2023-04-08T04:19:18;102178.19;;;8.52;100.00
54042;BME280;41156;51.508;5.406;2023-04-08T04:22:19;102187.28;;;8.51;100.00
54042;BME280;41156;51.508;5.406;2023-04-08T04:25:19;102193.00;;;8.57;100.00
54042;BME280;41156;51.508;5.406;2023-04-08T04:28:20;102187.28;;;8.60;100.00
54042;BME280;41156;51.508;5.406;2023-04-08T04:31:22;102197.03;;;8.61;100.00
54042;BME280;41156;51.508;5.406;2023-04-08T04:34:22;102201.75;;;8.59;100.00
54042;BME280;41156;51.508;5.406;2023-04-08T04:37:22;102206.16;;;8.60;100.00
54042;BME280;41156;51.508;5.406;2023-04-08T04:40:23;102203.47;;;8.60;100.00
54042;BME280;41156;51.508;5.406;2023-04-08T04:43:23;102212.53;;;8.50;100.00
54042;BME280;41156;51.508;5.406;2023-04-08T04:46:23;102209.34;;;8.47;100.00
54042;BME280;41156;51.508;5.406;2023-04-08T04:49:24;102219.28;;;8.46;100.00
54042;BME280;41156;51.508;5.406;2023-04-08T04:52:24;102223.66;;;8.47;100.00
54042;BME280;41156;51.508;5.406;2023-04-08T04:55:24;102225.00;;;8.43;100.00
54042;BME280;41156;51.508;5.406;2023-04-08T04:58:24;102227.53;;;8.45;100.00
54042;BME280;41156;51.508;5.406;2023-04-08T05:01:25;102226.69;;;8.44;100.00
54042;BME280;41156;51.508;5.406;2023-04-08T05:04:25;102222.97;;;8.45;100.00
54042;BME280;41156;51.508;5.406;2023-04-08T05:07:26;102232.75;;;8.46;100.00
54042;BME280;41156;51.508;5.406;2023-04-08T05:10:26;102224.84;;;8.45;100.00
54042;BME280;41156;51.508;5.406;2023-04-08T05:13:27;102232.75;;;8.46;100.00
54042;BME280;41156;51.508;5.406;2023-04-08T05:16:28;102239.31;;;8.52;100.00
54042;BME280;41156;51.508;5.406;2023-04-08T05:19:28;102238.81;;;8.48;100.00
54042;BME280;41156;51.508;5.406;2023-04-08T05:22:28;102245.38;;;8.54;100.00
54042;BME280;41156;51.508;5.406;2023-04-08T05:25:29;102249.44;;;8.58;100.00
54042;BME280;41156;51.508;5.406;2023-04-08T05:28:29;102246.41;;;8.53;100.00
54042;BME280;41156;51.508;5.406;2023-04-08T05:31:30;102245.91;;;8.49;100.00
54042;BME280;41156;51.508;5.406;2023-04-08T05:34:30;102245.03;;;8.49;100.00
54042;BME280;41156;51.508;5.406;2023-04-08T05:37:31;102247.56;;;8.50;100.00
54042;BME280;41156;51.508;5.406;2023-04-08T05:40:31;102252.78;;;8.52;100.00
54042;BME280;41156;51.508;5.406;2023-04-08T05:43:32;102257.19;;;8.53;100.00
54042;BME280;41156;51.508;5.406;2023-04-08T05:46:32;102259.72;;;8.55;100.00
54042;BME280;41156;51.508;5.406;2023-04-08T05:49:33;102259.72;;;8.55;100.00
54042;BME280;41156;51.508;5.406;2023-04-08T05:52:33;102255.81;;;8.57;100.00
54042;BME280;41156;51.508;5.406;2023-04-08T05:55:33;102258.00;;;8.54;100.00
54042;BME280;41156;51.508;5.406;2023-04-08T05:58:33;102265.25;;;8.53;100.00
54042;BME280;41156;51.508;5.406;2023-04-08T06:01:34;102270.47;;;8.55;100.00
54042;BME280;41156;51.508;5.406;2023-04-08T06:04:34;102277.22;;;8.59;100.00
54042;BME280;41156;51.508;5.406;2023-04-08T06:07:34;102272.81;;;8.66;100.00
54042;BME280;41156;51.508;5.406;2023-04-08T06:10:35;102274.03;;;8.72;100.00
54042;BME280;41156;51.508;5.406;2023-04-08T06:13:35;102278.94;;;8.76;100.00
54042;BME280;41156;51.508;5.406;2023-04-08T06:16:36;102276.56;;;8.81;100.00
54042;BME280;41156;51.508;5.406;2023-04-08T06:19:36;102290.38;;;8.86;100.00
54042;BME280;41156;51.508;5.406;2023-04-08T06:22:36;102295.28;;;8.91;100.00
54042;BME280;41156;51.508;5.406;2023-04-08T06:25:37;102288.03;;;8.92;100.00
54042;BME280;41156;51.508;5.406;2023-04-08T06:28:37;102296.09;;;8.92;100.00
54042;BME280;41156;51.508;5.406;2023-04-08T06:31:37;102298.31;;;8.96;100.00
54042;BME280;41156;51.508;5.406;2023-04-08T06:34:38;102299.47;;;9.02;100.00
54042;BME280;41156;51.508;5.406;2023-04-08T06:37:38;102309.75;;;9.06;100.00
54042;BME280;41156;51.508;5.406;2023-04-08T06:40:39;102308.56;;;9.09;100.00
54042;BME280;41156;51.508;5.406;2023-04-08T06:43:39;102309.94;;;9.13;100.00
54042;BME280;41156;51.508;5.406;2023-04-08T06:46:40;102313.94;;;9.17;100.00
54042;BME280;41156;51.508;5.406;2023-04-08T06:49:40;102327.44;;;9.25;100.00
54042;BME280;41156;51.508;5.406;2023-04-08T06:52:40;102315.13;;;9.31;100.00
54042;BME280;41156;51.508;5.406;2023-04-08T06:55:40;102324.41;;;9.37;100.00
54042;BME280;41156;51.508;5.406;2023-04-08T06:58:41;102326.41;;;9.43;100.00
54042;BME280;41156;51.508;5.406;2023-04-08T07:01:41;102321.16;;;9.58;100.00
54042;BME280;41156;51.508;5.406;2023-04-08T07:04:41;102335.66;;;9.57;100.00
54042;BME280;41156;51.508;5.406;2023-04-08T07:07:41;102337.34;;;9.66;100.00
54042;BME280;41156;51.508;5.406;2023-04-08T07:10:42;102338.34;;;9.65;100.00
54042;BME280;41156;51.508;5.406;2023-04-08T07:13:42;102346.44;;;9.65;100.00
54042;BME280;41156;51.508;5.406;2023-04-08T07:16:42;102347.59;;;9.71;100.00
54042;BME280;41156;51.508;5.406;2023-04-08T07:19:43;102347.44;;;9.72;100.00
54042;BME280;41156;51.508;5.406;2023-04-08T07:22:43;102352.00;;;9.72;100.00
54042;BME280;41156;51.508;5.406;2023-04-08T07:25:43;102354.53;;;9.73;100.00
54042;BME280;41156;51.508;5.406;2023-04-08T07:28:44;102361.44;;;9.76;100.00
54042;BME280;41156;51.508;5.406;2023-04-08T07:31:44;102362.47;;;9.75;100.00
54042;BME280;41156;51.508;5.406;2023-04-08T07:34:44;102375.63;;;9.78;100.00
54042;BME280;41156;51.508;5.406;2023-04-08T07:37:45;102367.88;;;9.67;100.00
54042;BME280;41156;51.508;5.406;2023-04-08T07:40:45;102366.16;;;9.66;100.00
54042;BME280;41156;51.508;5.406;2023-04-08T07:43:45;102372.25;;;9.68;100.00
54042;BME280;41156;51.508;5.406;2023-04-08T07:46:46;102369.72;;;9.74;100.00
54042;BME280;41156;51.508;5.406;2023-04-08T07:49:50;102364.47;;;9.81;100.00
54042;BME280;41156;51.508;5.406;2023-04-08T07:52:50;102373.22;;;9.83;100.00
54042;BME280;41156;51.508;5.406;2023-04-08T07:55:52;102379.13;;;9.87;100.00
54042;BME280;41156;51.508;5.406;2023-04-08T07:58:52;102385.00;;;9.98;100.00
54042;BME280;41156;51.508;5.406;2023-04-08T08:01:53;102382.94;;;10.09;100.00
54042;BME280;41156;51.508;5.406;2023-04-08T08:04:54;102390.69;;;10.12;100.00
54042;BME280;41156;51.508;5.406;2023-04-08T08:07:54;102390.22;;;10.08;100.00
54042;BME280;41156;51.508;5.406;2023-04-08T08:10:54;102393.75;;;10.00;100.00
54042;BME280;41156;51.508;5.406;2023-04-08T08:13:55;102399.00;;;10.02;100.00
54042;BME280;41156;51.508;5.406;2023-04-08T08:16:55;102398.47;;;10.07;100.00
54042;BME280;41156;51.508;5.406;2023-04-08T08:19:56;102406.03;;;10.19;100.00
54042;BME280;41156;51.508;5.406;2023-04-08T08:22:56;102407.19;;;10.25;100.00
54042;BME280;41156;51.508;5.406;2023-04-08T08:26:03;102409.56;;;10.28;100.00
54042;BME280;41156;51.508;5.406;2023-04-08T08:29:04;102416.47;;;10.31;100.00
54042;BME280;41156;51.508;5.406;2023-04-08T08:32:05;102415.63;;;10.30;100.00
54042;BME280;41156;51.508;5.406;2023-04-08T08:35:06;102417.31;;;10.40;100.00
54042;BME280;41156;51.508;5.406;2023-04-08T08:38:07;102425.25;;;10.41;100.00
54042;BME280;41156;51.508;5.406;2023-04-08T08:41:07;102424.75;;;10.38;100.00
54042;BME280;41156;51.508;5.406;2023-04-08T08:44:08;102423.00;;;10.53;100.00
54042;BME280;41156;51.508;5.406;2023-04-08T08:47:09;102424.94;;;10.67;100.00
54042;BME280;41156;51.508;5.406;2023-04-08T08:50:09;102425.91;;;10.83;100.00
54042;BME280;41156;51.508;5.406;2023-04-08T08:53:10;102434.28;;;10.96;100.00
54042;BME280;41156;51.508;5.406;2023-04-08T08:56:10;102437.84;;;10.88;100.00
54042;BME280;41156;51.508;5.406;2023-04-08T08:59:11;102434.34;;;10.80;100.00
54042;BME280;41156;51.508;5.406;2023-04-08T09:02:31;102439.59;;;10.81;100.00
54042;BME280;41156;51.508;5.406;2023-04-08T09:05:46;102440.03;;;10.93;100.00
54042;BME280;41156;51.508;5.406;2023-04-08T09:08:47;102438.09;;;11.02;100.00
54042;BME280;41156;51.508;5.406;2023-04-08T09:11:47;102446.00;;;11.11;100.00
54042;BME280;41156;51.508;5.406;2023-04-08T09:14:48;102453.06;;;11.21;100.00
54042;BME280;41156;51.508;5.406;2023-04-08T09:17:48;102452.97;;;11.29;100.00
54042;BME280;41156;51.508;5.406;2023-04-08T09:20:52;102457.72;;;11.27;100.00
54042;BME280;41156;51.508;5.406;2023-04-08T09:23:52;102458.81;;;11.18;100.00
54042;BME280;41156;51.508;5.406;2023-04-08T09:26:53;102459.69;;;11.10;100.00
54042;BME280;41156;51.508;5.406;2023-04-08T09:30:12;102464.50;;;11.00;100.00
54042;BME280;41156;51.508;5.406;2023-04-08T09:33:12;102463.66;;;10.99;100.00
54042;BME280;41156;51.508;5.406;2023-04-08T09:36:14;102472.44;;;11.01;100.00
54042;BME280;41156;51.508;5.406;2023-04-08T09:39:15;102469.03;;;11.07;100.00
54042;BME280;41156;51.508;5.406;2023-04-08T09:42:18;102462.28;;;11.03;100.00
54042;BME280;41156;51.508;5.406;2023-04-08T09:45:20;102467.66;;;11.11;100.00
54042;BME280;41156;51.508;5.406;2023-04-08T09:48:23;102469.28;;;11.21;100.00
54042;BME280;41156;51.508;5.406;2023-04-08T09:51:31;102473.13;;;11.26;100.00
54042;BME280;41156;51.508;5.406;2023-04-08T09:54:54;102477.41;;;11.21;100.00
54042;BME280;41156;51.508;5.406;2023-04-08T09:57:59;102479.03;;;11.30;100.00
54042;BME280;41156;51.508;5.406;2023-04-08T10:01:01;102482.84;;;11.36;100.00
54042;BME280;41156;51.508;5.406;2023-04-08T10:04:04;102473.50;;;11.46;100.00
54042;BME280;41156;51.508;5.406;2023-04-08T10:07:07;102474.88;;;11.42;100.00
54042;BME280;41156;51.508;5.406;2023-04-08T10:10:08;102481.06;;;11.51;100.00
54042;BME280;41156;51.508;5.406;2023-04-08T10:13:11;102477.44;;;11.59;100.00
54042;BME280;41156;51.508;5.406;2023-04-08T10:19:36;102488.94;;;11.84;100.00
54042;BME280;41156;51.508;5.406;2023-04-08T10:25:47;102481.41;;;11.94;100.00
54042;BME280;41156;51.508;5.406;2023-04-08T10:28:48;102472.34;;;12.02;100.00
54042;BME280;41156;51.508;5.406;2023-04-08T10:31:48;102471.06;;;12.13;100.00
54042;BME280;41156;51.508;5.406;2023-04-08T10:34:52;102471.38;;;12.33;100.00
54042;BME280;41156;51.508;5.406;2023-04-08T10:37:53;102468.75;;;12.54;100.00
54042;BME280;41156;51.508;5.406;2023-04-08T10:40:53;102466.09;;;12.76;100.00
54042;BME280;41156;51.508;5.406;2023-04-08T10:43:54;102464.53;;;13.03;100.00
54042;BME280;41156;51.508;5.406;2023-04-08T10:46:54;102460.69;;;13.12;100.00
54042;BME280;41156;51.508;5.406;2023-04-08T10:49:55;102465.03;;;13.13;100.00
54042;BME280;41156;51.508;5.406;2023-04-08T10:52:55;102468.16;;;13.10;100.00
54042;BME280;41156;51.508;5.406;2023-04-08T10:59:06;102457.53;;;13.52;100.00
54042;BME280;41156;51.508;5.406;2023-04-08T11:02:12;102454.78;;;13.74;100.00
54042;BME280;41156;51.508;5.406;2023-04-08T11:05:12;102454.44;;;13.83;100.00
54042;BME280;41156;51.508;5.406;2023-04-08T11:08:13;102452.38;;;14.20;100.00
54042;BME280;41156;51.508;5.406;2023-04-08T11:11:13;102442.75;;;14.53;100.00
54042;BME280;41156;51.508;5.406;2023-04-08T11:14:15;102444.13;;;14.84;100.00
54042;BME280;41156;51.508;5.406;2023-04-08T11:17:18;102441.72;;;15.09;100.00
54042;BME280;41156;51.508;5.406;2023-04-08T11:20:19;102449.63;;;14.97;100.00
54042;BME280;41156;51.508;5.406;2023-04-08T11:23:19;102450.06;;;15.01;100.00
54042;BME280;41156;51.508;5.406;2023-04-08T11:26:22;102447.38;;;15.07;100.00
54042;BME280;41156;51.508;5.406;2023-04-08T11:29:23;102438.97;;;14.95;100.00
54042;BME280;41156;51.508;5.406;2023-04-08T11:32:23;102437.00;;;14.76;100.00
54042;BME280;41156;51.508;5.406;2023-04-08T11:35:28;102433.25;;;14.84;100.00
54042;BME280;41156;51.508;5.406;2023-04-08T11:38:29;102435.72;;;14.72;100.00
54042;BME280;41156;51.508;5.406;2023-04-08T11:41:37;102443.88;;;14.72;100.00
54042;BME280;41156;51.508;5.406;2023-04-08T11:44:38;102434.97;;;14.98;100.00
54042;BME280;41156;51.508;5.406;2023-04-08T11:47:39;102438.75;;;15.10;100.00
54042;BME280;41156;51.508;5.406;2023-04-08T11:50:40;102444.63;;;14.94;86.73
54042;BME280;41156;51.508;5.406;2023-04-08T11:53:41;102445.03;;;14.97;99.96
54042;BME280;41156;51.508;5.406;2023-04-08T11:56:46;102449.22;;;15.00;94.11
54042;BME280;41156;51.508;5.406;2023-04-08T11:59:47;102444.22;;;15.10;100.00
54042;BME280;41156;51.508;5.406;2023-04-08T12:02:47;102444.50;;;15.42;99.22
54042;BME280;41156;51.508;5.406;2023-04-08T12:05:48;102439.25;;;15.34;90.53
54042;BME280;41156;51.508;5.406;2023-04-08T12:08:48;102435.88;;;15.32;96.40
54042;BME280;41156;51.508;5.406;2023-04-08T12:11:49;102442.81;;;15.41;97.04
54042;BME280;41156;51.508;5.406;2023-04-08T12:14:49;102438.00;;;15.63;95.83
54042;BME280;41156;51.508;5.406;2023-04-08T12:17:49;102434.66;;;15.81;94.94
54042;BME280;41156;51.508;5.406;2023-04-08T12:20:49;102433.63;;;15.76;90.06
54042;BME280;41156;51.508;5.406;2023-04-08T12:23:50;102433.63;;;15.76;93.21
54042;BME280;41156;51.508;5.406;2023-04-08T12:26:52;102430.03;;;15.95;91.99
54042;BME280;41156;51.508;5.406;2023-04-08T12:29:52;102433.41;;;15.97;84.30
54042;BME280;41156;51.508;5.406;2023-04-08T12:32:52;102427.47;;;16.07;88.83
54042;BME280;41156;51.508;5.406;2023-04-08T12:35:54;102435.88;;;16.19;88.02
54042;BME280;41156;51.508;5.406;2023-04-08T12:38:54;102431.22;;;16.33;75.56
54042;BME280;41156;51.508;5.406;2023-04-08T12:41:55;102431.47;;;16.11;79.47
54042;BME280;41156;51.508;5.406;2023-04-08T12:44:55;102425.38;;;16.22;85.56
54042;BME280;41156;51.508;5.406;2023-04-08T12:47:56;102423.22;;;16.38;83.04
54042;BME280;41156;51.508;5.406;2023-04-08T12:50:57;102425.69;;;16.53;82.22
54042;BME280;41156;51.508;5.406;2023-04-08T12:53:58;102423.50;;;16.68;81.14
54042;BME280;41156;51.508;5.406;2023-04-08T12:56:59;102416.31;;;16.80;80.12
54042;BME280;41156;51.508;5.406;2023-04-08T13:00:00;102408.34;;;16.86;80.51
54042;BME280;41156;51.508;5.406;2023-04-08T13:03:01;102413.94;;;16.97;74.71
54042;BME280;41156;51.508;5.406;2023-04-08T13:06:01;102416.63;;;17.04;73.51
54042;BME280;41156;51.508;5.406;2023-04-08T13:09:01;102409.50;;;17.28;76.00
54042;BME280;41156;51.508;5.406;2023-04-08T13:12:02;102403.38;;;17.58;75.53
54042;BME280;41156;51.508;5.406;2023-04-08T13:15:03;102404.00;;;17.60;71.36
54042;BME280;41156;51.508;5.406;2023-04-08T13:18:04;102397.03;;;17.89;72.51
54042;BME280;41156;51.508;5.406;2023-04-08T13:21:04;102391.78;;;18.25;70.37
54042;BME280;41156;51.508;5.406;2023-04-08T13:24:05;102390.34;;;18.71;70.51
54042;BME280;41156;51.508;5.406;2023-04-08T13:27:05;102392.88;;;19.03;66.47
54042;BME280;41156;51.508;5.406;2023-04-08T13:30:06;102395.19;;;19.30;67.49
54042;BME280;41156;51.508;5.406;2023-04-08T13:33:07;102387.81;;;18.88;67.25
54042;BME280;41156;51.508;5.406;2023-04-08T13:36:07;102385.00;;;18.46;59.21
54042;BME280;41156;51.508;5.406;2023-04-08T13:39:07;102384.97;;;18.16;68.65
54042;BME280;41156;51.508;5.406;2023-04-08T13:42:08;102384.50;;;18.00;67.45
54042;BME280;41156;51.508;5.406;2023-04-08T13:45:08;102386.31;;;17.88;67.61
54042;BME280;41156;51.508;5.406;2023-04-08T13:48:09;102382.94;;;17.86;67.61
54042;BME280;41156;51.508;5.406;2023-04-08T13:51:09;102380.06;;;17.81;68.30
54042;BME280;41156;51.508;5.406;2023-04-08T13:54:09;102380.25;;;17.61;68.27
54042;BME280;41156;51.508;5.406;2023-04-08T13:57:10;102391.06;;;17.49;68.47
54042;BME280;41156;51.508;5.406;2023-04-08T14:00:10;102384.91;;;17.28;67.84
54042;BME280;41156;51.508;5.406;2023-04-08T14:03:11;102380.09;;;16.98;67.39
54042;BME280;41156;51.508;5.406;2023-04-08T14:06:12;102377.22;;;16.87;68.85
54042;BME280;41156;51.508;5.406;2023-04-08T14:09:12;102381.56;;;16.62;66.40
54042;BME280;41156;51.508;5.406;2023-04-08T14:12:13;102375.72;;;16.52;68.22
54042;BME280;41156;51.508;5.406;2023-04-08T14:15:13;102377.44;;;16.40;69.20
54042;BME280;41156;51.508;5.406;2023-04-08T14:18:13;102373.25;;;16.44;67.15
54042;BME280;41156;51.508;5.406;2023-04-08T14:21:16;102372.91;;;16.20;66.75
54042;BME280;41156;51.508;5.406;2023-04-08T14:24:17;102368.75;;;16.11;68.45
54042;BME280;41156;51.508;5.406;2023-04-08T14:27:18;102369.38;;;16.13;66.21
54042;BME280;41156;51.508;5.406;2023-04-08T14:30:18;102365.44;;;15.96;67.02
54042;BME280;41156;51.508;5.406;2023-04-08T14:33:18;102372.59;;;15.83;66.96
54042;BME280;41156;51.508;5.406;2023-04-08T14:36:19;102365.91;;;15.66;61.09
54042;BME280;41156;51.508;5.406;2023-04-08T14:39:20;102372.59;;;15.43;65.81
54042;BME280;41156;51.508;5.406;2023-04-08T14:42:20;102378.88;;;15.30;65.86
54042;BME280;41156;51.508;5.406;2023-04-08T14:45:21;102363.41;;;15.31;66.20
54042;BME280;41156;51.508;5.406;2023-04-08T14:48:21;102362.78;;;15.49;66.04
54042;BME280;41156;51.508;5.406;2023-04-08T14:51:24;102352.06;;;15.74;65.55
54042;BME280;41156;51.508;5.406;2023-04-08T14:54:25;102358.47;;;16.06;64.76
54042;BME280;41156;51.508;5.406;2023-04-08T14:57:25;102354.63;;;16.27;62.85
54042;BME280;41156;51.508;5.406;2023-04-08T15:00:26;102358.72;;;16.50;62.69
54042;BME280;41156;51.508;5.406;2023-04-08T15:03:26;102365.97;;;16.70;64.72
54042;BME280;41156;51.508;5.406;2023-04-08T15:06:27;102363.25;;;16.70;64.46
54042;BME280;41156;51.508;5.406;2023-04-08T15:09:27;102363.47;;;16.68;61.40
54042;BME280;41156;51.508;5.406;2023-04-08T15:12:28;102352.66;;;16.87;61.07
54042;BME280;41156;51.508;5.406;2023-04-08T15:15:28;102356.09;;;17.07;59.96
54042;BME280;41156;51.508;5.406;2023-04-08T15:18:28;102354.00;;;17.34;60.52
54042;BME280;41156;51.508;5.406;2023-04-08T15:21:28;102342.81;;;17.61;62.88
54042;BME280;41156;51.508;5.406;2023-04-08T15:24:30;102341.09;;;17.85;61.76
54042;BME280;41156;51.508;5.406;2023-04-08T15:27:30;102339.88;;;17.81;60.85
54042;BME280;41156;51.508;5.406;2023-04-08T15:30:31;102340.81;;;17.50;62.10
54042;BME280;41156;51.508;5.406;2023-04-08T15:33:34;102340.44;;;17.21;59.17
54042;BME280;41156;51.508;5.406;2023-04-08T15:36:37;102342.66;;;17.06;63.16
54042;BME280;41156;51.508;5.406;2023-04-08T15:39:38;102338.53;;;16.96;62.62
54042;BME280;41156;51.508;5.406;2023-04-08T15:42:40;102341.53;;;16.81;61.22
54042;BME280;41156;51.508;5.406;2023-04-08T15:45:42;102343.44;;;16.88;62.67
54042;BME280;41156;51.508;5.406;2023-04-08T15:48:43;102347.09;;;17.00;62.43
54042;BME280;41156;51.508;5.406;2023-04-08T15:51:43;102348.06;;;16.87;62.23
54042;BME280;41156;51.508;5.406;2023-04-08T15:54:43;102350.63;;;16.75;61.39